sensor_id;sensor_type;location;lat;lon;timestamp;pressure;altitude;pressure_sealevel;temperature;humidity
39555;BME280;25231;48.746;9.234;2023-03-23T00:01:23;96154.34;;;13.04;57.09
39555;BME280;25231;48.746;9.234;2023-03-23T00:03:53;96153.25;;;13.00;57.29
39555;BME280;25231;48.746;9.234;2023-03-23T00:06:22;96140.66;;;13.07;57.43
39555;BME280;25231;48.746;9.234;2023-03-23T00:08:49;96150.13;;;13.08;57.33
39555;BME280;25231;48.746;9.234;2023-03-23T00:11:22;96148.53;;;13.02;57.97
39555;BME280;25231;48.746;9.234;2023-03-23T00:13:49;96141.19;;;13.04;58.04
39555;BME280;25231;48.746;9.234;2023-03-23T00:16:17;96141.44;;;13.02;58.25
39555;BME280;25231;48.746;9.234;2023-03-23T00:18:48;96151.91;;;12.92;58.85
39555;BME280;25231;48.746;9.234;2023-03-23T00:21:18;96150.59;;;13.00;58.73
39555;BME280;25231;48.746;9.234;2023-03-23T00:23:43;96148.81;;;13.10;58.66
39555;BME280;25231;48.746;9.234;2023-03-23T00:26:10;96145.66;;;13.08;58.58
39555;BME280;25231;48.746;9.234;2023-03-23T00:28:36;96139.88;;;13.11;58.36
39555;BME280;25231;48.746;9.234;2023-03-23T00:31:06;96144.06;;;13.07;58.65
39555;BME280;25231;48.746;9.234;2023-03-23T00:33:33;96142.22;;;13.03;58.22
39555;BME280;25231;48.746;9.234;2023-03-23T00:36:03;96130.34;;;12.95;58.67
39555;BME280;25231;48.746;9.234;2023-03-23T00:38:29;96129.53;;;12.95;58.60
39555;BME280;25231;48.746;9.234;2023-03-23T00:40:54;96131.69;;;12.98;58.76
39555;BME280;25231;48.746;9.234;2023-03-23T00:43:20;96127.16;;;12.88;59.27
39555;BME280;25231;48.746;9.234;2023-03-23T00:45:46;96127.34;;;12.76;59.88
39555;BME280;25231;48.746;9.234;2023-03-23T00:48:21;96121.59;;;12.79;59.99
39555;BME280;25231;48.746;9.234;2023-03-23T00:50:47;96112.66;;;12.80;60.23
39555;BME280;25231;48.746;9.234;2023-03-23T00:53:13;96117.59;;;12.72;60.39
39555;BME280;25231;48.746;9.234;2023-03-23T00:55:41;96114.69;;;12.63;60.95
39555;BME280;25231;48.746;9.234;2023-03-23T00:58:06;96112.53;;;12.55;61.35
39555;BME280;25231;48.746;9.234;2023-03-23T01:00:31;96110.66;;;12.50;61.81
39555;BME280;25231;48.746;9.234;2023-03-23T01:02:57;96108.81;;;12.46;61.87
39555;BME280;25231;48.746;9.234;2023-03-23T01:05:22;96102.00;;;12.55;61.96
39555;BME280;25231;48.746;9.234;2023-03-23T01:07:47;96104.38;;;12.52;62.17
39555;BME280;25231;48.746;9.234;2023-03-23T01:10:14;96101.19;;;12.49;62.15
39555;BME280;25231;48.746;9.234;2023-03-23T01:12:44;96099.13;;;12.57;62.21
39555;BME280;25231;48.746;9.234;2023-03-23T01:15:15;96105.44;;;12.56;62.11
39555;BME280;25231;48.746;9.234;2023-03-23T01:17:42;96097.03;;;12.54;61.82
39555;BME280;25231;48.746;9.234;2023-03-23T01:20:08;96095.94;;;12.49;61.68
39555;BME280;25231;48.746;9.234;2023-03-23T01:22:33;96096.47;;;12.46;61.69
39555;BME280;25231;48.746;9.234;2023-03-23T01:24:59;96092.78;;;12.42;61.92
39555;BME280;25231;48.746;9.234;2023-03-23T01:27:25;96092.81;;;12.53;61.30
39555;BME280;25231;48.746;9.234;2023-03-23T01:29:50;96090.97;;;12.53;61.14
39555;BME280;25231;48.746;9.234;2023-03-23T01:32:15;96083.09;;;12.53;60.95
39555;BME280;25231;48.746;9.234;2023-03-23T01:34:41;96075.22;;;12.58;60.52
39555;BME280;25231;48.746;9.234;2023-03-23T01:37:06;96069.19;;;12.58;60.57
39555;BME280;25231;48.746;9.234;2023-03-23T01:39:32;96068.41;;;12.62;60.46
39555;BME280;25231;48.746;9.234;2023-03-23T01:41:57;96063.16;;;12.62;60.51
39555;BME280;25231;48.746;9.234;2023-03-23T01:46:48;96055.47;;;12.50;61.13
39555;BME280;25231;48.746;9.234;2023-03-23T01:49:18;96051.56;;;12.58;61.11
39555;BME280;25231;48.746;9.234;2023-03-23T01:52:04;96053.69;;;12.61;60.91
39555;BME280;25231;48.746;9.234;2023-03-23T01:54:32;96052.09;;;12.60;60.89
39555;BME280;25231;48.746;9.234;2023-03-23T01:57:02;96048.13;;;12.47;61.47
39555;BME280;25231;48.746;9.234;2023-03-23T01:59:30;96055.22;;;12.52;61.33
39555;BME280;25231;48.746;9.234;2023-03-23T02:01:57;96051.84;;;12.62;61.26
39555;BME280;25231;48.746;9.234;2023-03-23T02:04:23;96046.56;;;12.57;61.29
39555;BME280;25231;48.746;9.234;2023-03-23T02:06:51;96048.38;;;12.51;61.55
39555;BME280;25231;48.746;9.234;2023-03-23T02:09:18;96052.03;;;12.45;61.80
39555;BME280;25231;48.746;9.234;2023-03-23T02:11:45;96048.13;;;12.47;62.20
39555;BME280;25231;48.746;9.234;2023-03-23T02:14:11;96050.78;;;12.58;61.87
39555;BME280;25231;48.746;9.234;2023-03-23T02:27:23;96055.94;;;12.37;63.75
39555;BME280;25231;48.746;9.234;2023-03-23T02:35:18;96043.09;;;12.46;63.52
39555;BME280;25231;48.746;9.234;2023-03-23T02:38:19;96039.16;;;12.48;63.24
39555;BME280;25231;48.746;9.234;2023-03-23T02:40:40;96028.41;;;12.50;63.43
39555;BME280;25231;48.746;9.234;2023-03-23T02:43:09;96019.72;;;12.55;62.96
39555;BME280;25231;48.746;9.234;2023-03-23T02:45:37;96015.53;;;12.54;63.19
39555;BME280;25231;48.746;9.234;2023-03-23T02:48:05;96006.34;;;12.61;62.92
39555;BME280;25231;48.746;9.234;2023-03-23T02:50:33;96004.75;;;12.55;63.60
39555;BME280;25231;48.746;9.234;2023-03-23T02:53:01;96000.50;;;12.44;64.05
39555;BME280;25231;48.746;9.234;2023-03-23T02:55:29;96008.13;;;12.40;64.58
39555;BME280;25231;48.746;9.234;2023-03-23T02:57:56;96007.66;;;12.54;64.43
39555;BME280;25231;48.746;9.234;2023-03-23T03:00:22;96010.00;;;12.50;65.05
39555;BME280;25231;48.746;9.234;2023-03-23T03:02:50;96015.00;;;12.46;65.59
39555;BME280;25231;48.746;9.234;2023-03-23T03:05:30;96006.56;;;12.44;65.85
39555;BME280;25231;48.746;9.234;2023-03-23T03:11:10;95992.59;;;12.39;66.51
39555;BME280;25231;48.746;9.234;2023-03-23T03:13:58;95989.19;;;12.38;66.56
39555;BME280;25231;48.746;9.234;2023-03-23T03:16:46;95989.69;;;12.30;66.72
39555;BME280;25231;48.746;9.234;2023-03-23T03:19:30;95981.25;;;12.23;67.08
39555;BME280;25231;48.746;9.234;2023-03-23T03:21:59;95984.66;;;12.24;67.54
39555;BME280;25231;48.746;9.234;2023-03-23T03:24:27;95978.84;;;12.17;67.85
39555;BME280;25231;48.746;9.234;2023-03-23T03:26:54;95987.56;;;12.27;67.54
39555;BME280;25231;48.746;9.234;2023-03-23T03:29:32;95984.91;;;12.17;68.26
39555;BME280;25231;48.746;9.234;2023-03-23T03:32:00;95983.84;;;12.18;68.73
39555;BME280;25231;48.746;9.234;2023-03-23T03:34:29;95976.81;;;12.29;68.69
39555;BME280;25231;48.746;9.234;2023-03-23T03:36:58;95974.38;;;12.17;69.06
39555;BME280;25231;48.746;9.234;2023-03-23T03:39:25;95978.34;;;12.20;69.53
39555;BME280;25231;48.746;9.234;2023-03-23T03:41:50;95984.34;;;12.10;69.45
39555;BME280;25231;48.746;9.234;2023-03-23T03:44:16;95988.28;;;12.07;69.96
39555;BME280;25231;48.746;9.234;2023-03-23T03:46:41;95982.50;;;12.11;70.17
39555;BME280;25231;48.746;9.234;2023-03-23T03:49:08;95989.59;;;12.15;70.11
39555;BME280;25231;48.746;9.234;2023-03-23T03:51:35;95982.78;;;12.14;70.15
39555;BME280;25231;48.746;9.234;2023-03-23T03:54:01;95988.28;;;12.07;70.46
39555;BME280;25231;48.746;9.234;2023-03-23T03:56:27;95980.63;;;12.06;70.33
39555;BME280;25231;48.746;9.234;2023-03-23T03:58:53;95980.91;;;12.09;70.41
39555;BME280;25231;48.746;9.234;2023-03-23T04:01:21;95976.72;;;12.08;70.46
39555;BME280;25231;48.746;9.234;2023-03-23T04:03:48;95976.19;;;12.06;70.87
39555;BME280;25231;48.746;9.234;2023-03-23T04:06:14;95978.81;;;12.12;71.16
39555;BME280;25231;48.746;9.234;2023-03-23T04:08:40;95966.94;;;11.99;71.43
39555;BME280;25231;48.746;9.234;2023-03-23T04:11:07;95974.03;;;11.98;71.12
39555;BME280;25231;48.746;9.234;2023-03-23T04:13:32;95973.81;;;12.10;71.13
39555;BME280;25231;48.746;9.234;2023-03-23T04:15:58;95972.50;;;12.02;71.21
39555;BME280;25231;48.746;9.234;2023-03-23T04:18:23;95975.44;;;12.16;69.93
39555;BME280;25231;48.746;9.234;2023-03-23T04:20:50;95981.78;;;12.20;69.20
39555;BME280;25231;48.746;9.234;2023-03-23T04:23:17;95974.47;;;12.37;68.48
39555;BME280;25231;48.746;9.234;2023-03-23T04:25:46;95980.03;;;12.46;67.55
39555;BME280;25231;48.746;9.234;2023-03-23T04:28:12;95983.72;;;12.50;67.31
39555;BME280;25231;48.746;9.234;2023-03-23T04:30:38;95981.63;;;12.52;66.82
39555;BME280;25231;48.746;9.234;2023-03-23T04:33:03;95989.53;;;12.57;66.93
39555;BME280;25231;48.746;9.234;2023-03-23T04:35:29;95994.25;;;12.65;66.69
39555;BME280;25231;48.746;9.234;2023-03-23T04:37:55;95989.81;;;12.71;65.95
39555;BME280;25231;48.746;9.234;2023-03-23T04:40:22;95983.25;;;12.68;66.01
39555;BME280;25231;48.746;9.234;2023-03-23T04:42:48;95997.47;;;12.82;65.36
39555;BME280;25231;48.746;9.234;2023-03-23T04:45:19;95983.81;;;12.80;65.39
39555;BME280;25231;48.746;9.234;2023-03-23T04:47:48;95983.53;;;12.77;65.65
39555;BME280;25231;48.746;9.234;2023-03-23T04:50:20;95974.59;;;12.83;65.19
39555;BME280;25231;48.746;9.234;2023-03-23T04:52:46;95971.47;;;12.86;65.29
39555;BME280;25231;48.746;9.234;2023-03-23T04:55:13;95969.09;;;12.89;65.01
39555;BME280;25231;48.746;9.234;2023-03-23T04:57:38;95963.31;;;12.93;64.86
39555;BME280;25231;48.746;9.234;2023-03-23T05:00:05;95969.34;;;12.88;64.58
39555;BME280;25231;48.746;9.234;2023-03-23T05:02:35;95976.72;;;12.91;64.64
39555;BME280;25231;48.746;9.234;2023-03-23T05:05:01;95993.31;;;13.02;64.30
39555;BME280;25231;48.746;9.234;2023-03-23T05:07:26;95981.47;;;13.04;64.33
39555;BME280;25231;48.746;9.234;2023-03-23T05:09:51;95981.75;;;12.98;64.48
39555;BME280;25231;48.746;9.234;2023-03-23T05:12:17;95985.16;;;12.98;64.61
39555;BME280;25231;48.746;9.234;2023-03-23T05:14:43;95982.53;;;13.03;64.30
39555;BME280;25231;48.746;9.234;2023-03-23T05:17:08;95989.34;;;12.99;64.47
39555;BME280;25231;48.746;9.234;2023-03-23T05:19:34;95976.47;;;13.03;64.61
39555;BME280;25231;48.746;9.234;2023-03-23T05:22:00;95984.63;;;12.91;64.94
39555;BME280;25231;48.746;9.234;2023-03-23T05:24:32;95984.88;;;12.95;65.03
39555;BME280;25231;48.746;9.234;2023-03-23T05:27:01;95977.78;;;13.00;64.66
39555;BME280;25231;48.746;9.234;2023-03-23T05:29:28;95974.66;;;13.03;64.66
39555;BME280;25231;48.746;9.234;2023-03-23T05:31:56;95982.53;;;12.98;64.65
39555;BME280;25231;48.746;9.234;2023-03-23T05:34:25;95970.94;;;12.94;65.13
39555;BME280;25231;48.746;9.234;2023-03-23T05:36:52;95972.53;;;13.05;64.66
39555;BME280;25231;48.746;9.234;2023-03-23T05:39:18;95977.31;;;13.13;64.50
39555;BME280;25231;48.746;9.234;2023-03-23T05:41:44;95982.56;;;13.13;64.39
39555;BME280;25231;48.746;9.234;2023-03-23T05:44:10;95981.50;;;13.09;64.56
39555;BME280;25231;48.746;9.234;2023-03-23T05:46:35;95979.38;;;13.06;65.12
39555;BME280;25231;48.746;9.234;2023-03-23T05:49:00;95977.28;;;13.03;65.20
39555;BME280;25231;48.746;9.234;2023-03-23T05:51:26;95979.91;;;13.08;64.69
39555;BME280;25231;48.746;9.234;2023-03-23T05:53:51;95979.09;;;12.98;65.33
39555;BME280;25231;48.746;9.234;2023-03-23T05:56:17;95987.25;;;13.01;65.11
39555;BME280;25231;48.746;9.234;2023-03-23T05:58:43;95987.50;;;13.10;65.11
39555;BME280;25231;48.746;9.234;2023-03-23T06:01:08;95993.09;;;13.13;64.85
39555;BME280;25231;48.746;9.234;2023-03-23T06:03:34;95995.72;;;13.18;64.67
39555;BME280;25231;48.746;9.234;2023-03-23T06:06:02;95995.72;;;13.28;64.33
39555;BME280;25231;48.746;9.234;2023-03-23T06:08:28;96001.53;;;13.25;64.63
39555;BME280;25231;48.746;9.234;2023-03-23T06:10:54;96007.06;;;13.29;64.64
39555;BME280;25231;48.746;9.234;2023-03-23T06:13:20;96008.63;;;13.40;64.38
39555;BME280;25231;48.746;9.234;2023-03-23T06:15:46;96017.88;;;13.43;63.82
39555;BME280;25231;48.746;9.234;2023-03-23T06:18:11;96016.00;;;13.43;64.59
39555;BME280;25231;48.746;9.234;2023-03-23T06:20:38;96018.38;;;13.50;63.92
39555;BME280;25231;48.746;9.234;2023-03-23T06:23:04;96022.06;;;13.44;64.19
39555;BME280;25231;48.746;9.234;2023-03-23T06:25:30;96022.84;;;13.39;64.23
39555;BME280;25231;48.746;9.234;2023-03-23T06:27:55;96027.31;;;13.49;63.63
39555;BME280;25231;48.746;9.234;2023-03-23T06:30:21;96030.47;;;13.41;63.99
39555;BME280;25231;48.746;9.234;2023-03-23T06:32:46;96033.66;;;13.43;63.59
39555;BME280;25231;48.746;9.234;2023-03-23T06:35:13;96031.28;;;13.41;63.80
39555;BME280;25231;48.746;9.234;2023-03-23T06:37:39;96034.97;;;13.40;63.69
39555;BME280;25231;48.746;9.234;2023-03-23T06:40:06;96029.69;;;13.30;64.06
39555;BME280;25231;48.746;9.234;2023-03-23T06:42:32;96029.69;;;13.35;63.70
39555;BME280;25231;48.746;9.234;2023-03-23T06:44:57;96035.75;;;13.41;63.54
39555;BME280;25231;48.746;9.234;2023-03-23T06:47:25;96041.28;;;13.34;63.79
39555;BME280;25231;48.746;9.234;2023-03-23T06:49:51;96046.28;;;13.30;63.91
39555;BME280;25231;48.746;9.234;2023-03-23T06:52:16;96041.81;;;13.41;63.73
39555;BME280;25231;48.746;9.234;2023-03-23T06:54:43;96039.72;;;13.48;63.77
39555;BME280;25231;48.746;9.234;2023-03-23T06:57:08;96047.59;;;13.68;63.15
39555;BME280;25231;48.746;9.234;2023-03-23T06:59:34;96043.66;;;13.76;63.23
39555;BME280;25231;48.746;9.234;2023-03-23T07:01:59;96041.78;;;14.07;62.28
39555;BME280;25231;48.746;9.234;2023-03-23T07:04:25;96054.66;;;14.24;61.77
39555;BME280;25231;48.746;9.234;2023-03-23T07:06:50;96052.00;;;14.24;63.10
39555;BME280;25231;48.746;9.234;2023-03-23T07:09:16;96055.16;;;14.36;62.29
39555;BME280;25231;48.746;9.234;2023-03-23T07:11:41;96046.47;;;14.25;61.75
39555;BME280;25231;48.746;9.234;2023-03-23T07:14:07;96041.72;;;14.22;61.88
39555;BME280;25231;48.746;9.234;2023-03-23T07:16:32;96052.06;;;14.08;62.38
39555;BME280;25231;48.746;9.234;2023-03-23T07:18:59;96053.59;;;14.30;61.25
39555;BME280;25231;48.746;9.234;2023-03-23T07:21:24;96050.44;;;14.12;61.65
39555;BME280;25231;48.746;9.234;2023-03-23T07:23:50;96061.75;;;14.23;61.00
39555;BME280;25231;48.746;9.234;2023-03-23T07:26:15;96072.56;;;14.22;60.88
39555;BME280;25231;48.746;9.234;2023-03-23T07:28:41;96075.22;;;14.16;61.23
39555;BME280;25231;48.746;9.234;2023-03-23T07:31:07;96073.13;;;14.08;61.62
39555;BME280;25231;48.746;9.234;2023-03-23T07:33:35;96081.84;;;14.04;61.89
39555;BME280;25231;48.746;9.234;2023-03-23T07:36:01;96079.44;;;14.07;61.49
39555;BME280;25231;48.746;9.234;2023-03-23T07:38:28;96090.78;;;14.18;61.46
39555;BME280;25231;48.746;9.234;2023-03-23T07:40:54;96090.72;;;14.53;87.08
39555;BME280;25231;48.746;9.234;2023-03-23T07:43:19;96086.25;;;14.54;69.85
39555;BME280;25231;48.746;9.234;2023-03-23T07:45:45;96094.94;;;14.54;61.42
39555;BME280;25231;48.746;9.234;2023-03-23T07:48:10;96103.66;;;14.35;61.75
39555;BME280;25231;48.746;9.234;2023-03-23T07:50:36;96100.50;;;14.48;61.41
39555;BME280;25231;48.746;9.234;2023-03-23T07:53:03;96097.03;;;14.57;60.63
39555;BME280;25231;48.746;9.234;2023-03-23T07:55:28;96101.22;;;14.69;60.20
39555;BME280;25231;48.746;9.234;2023-03-23T07:57:54;96101.75;;;14.76;60.19
39555;BME280;25231;48.746;9.234;2023-03-23T08:00:20;96106.69;;;14.92;59.42
39555;BME280;25231;48.746;9.234;2023-03-23T08:02:51;96110.25;;;15.17;58.64
39555;BME280;25231;48.746;9.234;2023-03-23T08:05:17;96102.53;;;15.30;58.46
39555;BME280;25231;48.746;9.234;2023-03-23T08:07:43;96098.16;;;15.06;59.28
39555;BME280;25231;48.746;9.234;2023-03-23T08:10:11;96103.53;;;14.90;60.34
39555;BME280;25231;48.746;9.234;2023-03-23T08:12:38;96098.78;;;14.92;60.97
39555;BME280;25231;48.746;9.234;2023-03-23T08:15:05;96113.28;;;14.90;61.24
39555;BME280;25231;48.746;9.234;2023-03-23T08:17:31;96120.94;;;14.91;61.51
39555;BME280;25231;48.746;9.234;2023-03-23T08:19:57;96119.06;;;14.97;61.32
39555;BME280;25231;48.746;9.234;2023-03-23T08:22:23;96118.25;;;15.02;61.44
39555;BME280;25231;48.746;9.234;2023-03-23T08:24:48;96111.91;;;15.08;61.17
39555;BME280;25231;48.746;9.234;2023-03-23T08:27:14;96120.06;;;15.11;61.42
39555;BME280;25231;48.746;9.234;2023-03-23T08:29:39;96120.25;;;15.25;60.55
39555;BME280;25231;48.746;9.234;2023-03-23T08:32:06;96127.25;;;15.50;60.55
39555;BME280;25231;48.746;9.234;2023-03-23T08:34:31;96129.00;;;15.69;59.67
39555;BME280;25231;48.746;9.234;2023-03-23T08:36:57;96129.53;;;15.71;59.75
39555;BME280;25231;48.746;9.234;2023-03-23T08:39:23;96127.66;;;15.72;59.66
39555;BME280;25231;48.746;9.234;2023-03-23T08:41:49;96135.03;;;15.75;60.31
39555;BME280;25231;48.746;9.234;2023-03-23T08:44:15;96132.25;;;15.56;60.68
39555;BME280;25231;48.746;9.234;2023-03-23T08:46:40;96129.06;;;15.59;61.37
39555;BME280;25231;48.746;9.234;2023-03-23T08:49:06;96137.09;;;15.34;62.21
39555;BME280;25231;48.746;9.234;2023-03-23T08:51:32;96138.19;;;15.28;63.02
39555;BME280;25231;48.746;9.234;2023-03-23T08:53:57;96138.78;;;15.15;64.01
39555;BME280;25231;48.746;9.234;2023-03-23T08:56:24;96138.75;;;15.25;64.14
39555;BME280;25231;48.746;9.234;2023-03-23T08:58:49;96139.19;;;15.42;63.39
39555;BME280;25231;48.746;9.234;2023-03-23T09:01:15;96149.25;;;15.35;63.87
39555;BME280;25231;48.746;9.234;2023-03-23T09:03:40;96152.44;;;15.27;64.41
39555;BME280;25231;48.746;9.234;2023-03-23T09:06:08;96155.84;;;15.32;64.26
39555;BME280;25231;48.746;9.234;2023-03-23T09:08:34;96161.03;;;15.58;63.23
39555;BME280;25231;48.746;9.234;2023-03-23T09:11:05;96151.97;;;15.74;62.94
39555;BME280;25231;48.746;9.234;2023-03-23T09:13:32;96155.81;;;15.92;62.51
39555;BME280;25231;48.746;9.234;2023-03-23T09:15:58;96152.16;;;16.21;61.43
39555;BME280;25231;48.746;9.234;2023-03-23T09:18:23;96163.22;;;16.23;61.03
39555;BME280;25231;48.746;9.234;2023-03-23T09:20:50;96165.38;;;16.16;61.42
39555;BME280;25231;48.746;9.234;2023-03-23T09:23:16;96169.69;;;16.07;61.40
39555;BME280;25231;48.746;9.234;2023-03-23T09:25:42;96166.53;;;16.05;61.64
39555;BME280;25231;48.746;9.234;2023-03-23T09:28:08;96168.03;;;16.16;61.38
39555;BME280;25231;48.746;9.234;2023-03-23T09:30:34;96170.09;;;16.25;61.48
39555;BME280;25231;48.746;9.234;2023-03-23T09:33:02;96167.31;;;16.40;60.83
39555;BME280;25231;48.746;9.234;2023-03-23T09:35:28;96185.91;;;16.30;61.33
39555;BME280;25231;48.746;9.234;2023-03-23T09:37:54;96188.72;;;16.43;60.81
39555;BME280;25231;48.746;9.234;2023-03-23T09:40:23;96181.09;;;16.37;60.95
39555;BME280;25231;48.746;9.234;2023-03-23T09:43:16;96179.38;;;15.88;61.83
39555;BME280;25231;48.746;9.234;2023-03-23T09:54:03;96187.41;;;16.07;61.94
39555;BME280;25231;48.746;9.234;2023-03-23T09:56:31;96173.47;;;15.96;61.75
39555;BME280;25231;48.746;9.234;2023-03-23T09:59:12;96184.66;;;15.83;62.44
39555;BME280;25231;48.746;9.234;2023-03-23T10:01:45;96193.91;;;15.86;61.83
39555;BME280;25231;48.746;9.234;2023-03-23T10:07:06;96191.06;;;15.72;62.84
39555;BME280;25231;48.746;9.234;2023-03-23T10:09:33;96193.50;;;16.07;62.42
39555;BME280;25231;48.746;9.234;2023-03-23T10:12:21;96186.25;;;16.18;61.71
39555;BME280;25231;48.746;9.234;2023-03-23T10:18:20;96197.00;;;16.32;61.51
39555;BME280;25231;48.746;9.234;2023-03-23T10:20:33;96194.47;;;16.21;61.84
39555;BME280;25231;48.746;9.234;2023-03-23T10:25:35;96198.22;;;17.02;59.44
39555;BME280;25231;48.746;9.234;2023-03-23T10:30:34;96190.78;;;16.80;60.13
39555;BME280;25231;48.746;9.234;2023-03-23T10:33:05;96206.09;;;16.83;59.93
39555;BME280;25231;48.746;9.234;2023-03-23T10:35:59;96206.91;;;17.08;59.69
39555;BME280;25231;48.746;9.234;2023-03-23T10:38:33;96207.41;;;17.10;59.00
39555;BME280;25231;48.746;9.234;2023-03-23T10:41:06;96196.00;;;16.85;60.08
39555;BME280;25231;48.746;9.234;2023-03-23T10:43:34;96200.34;;;17.00;60.35
39555;BME280;25231;48.746;9.234;2023-03-23T10:46:03;96202.91;;;16.86;60.16
39555;BME280;25231;48.746;9.234;2023-03-23T10:48:32;96214.19;;;16.68;60.87
39555;BME280;25231;48.746;9.234;2023-03-23T10:51:00;96209.38;;;16.99;60.57
39555;BME280;25231;48.746;9.234;2023-03-23T10:53:39;96208.72;;;16.54;61.03
39555;BME280;25231;48.746;9.234;2023-03-23T10:56:25;96204.28;;;16.79;60.65
39555;BME280;25231;48.746;9.234;2023-03-23T10:58:51;96212.84;;;16.94;60.39
39555;BME280;25231;48.746;9.234;2023-03-23T11:01:19;96204.97;;;17.37;59.28
39555;BME280;25231;48.746;9.234;2023-03-23T11:03:47;96206.78;;;17.41;58.97
39555;BME280;25231;48.746;9.234;2023-03-23T11:06:22;96209.03;;;17.29;59.11
39555;BME280;25231;48.746;9.234;2023-03-23T11:09:12;96202.31;;;17.37;58.19
39555;BME280;25231;48.746;9.234;2023-03-23T11:11:39;96212.31;;;17.21;58.94
39555;BME280;25231;48.746;9.234;2023-03-23T11:14:26;96199.41;;;17.15;59.77
39555;BME280;25231;48.746;9.234;2023-03-23T11:16:54;96211.06;;;17.14;59.52
39555;BME280;25231;48.746;9.234;2023-03-23T11:19:46;96207.41;;;16.86;60.87
39555;BME280;25231;48.746;9.234;2023-03-23T11:24:53;96205.88;;;16.80;60.79
39555;BME280;25231;48.746;9.234;2023-03-23T11:27:19;96206.09;;;16.83;62.46
39555;BME280;25231;48.746;9.234;2023-03-23T11:30:00;96201.59;;;16.84;64.97
39555;BME280;25231;48.746;9.234;2023-03-23T11:32:32;96198.94;;;16.84;62.95
39555;BME280;25231;48.746;9.234;2023-03-23T11:34:59;96206.41;;;16.48;64.43
39555;BME280;25231;48.746;9.234;2023-03-23T11:42:26;96193.72;;;17.02;65.93
39555;BME280;25231;48.746;9.234;2023-03-23T11:45:30;96187.34;;;17.27;65.95
39555;BME280;25231;48.746;9.234;2023-03-23T11:48:03;96177.63;;;17.41;65.45
39555;BME280;25231;48.746;9.234;2023-03-23T11:53:30;96183.47;;;17.62;61.56
39555;BME280;25231;48.746;9.234;2023-03-23T11:58:44;96185.44;;;17.75;59.99
39555;BME280;25231;48.746;9.234;2023-03-23T12:06:50;96169.94;;;18.01;58.88
39555;BME280;25231;48.746;9.234;2023-03-23T12:20:25;96164.47;;;17.55;60.01
39555;BME280;25231;48.746;9.234;2023-03-23T12:30:58;96162.50;;;17.66;57.47
39555;BME280;25231;48.746;9.234;2023-03-23T12:36:04;96166.16;;;17.70;58.71
39555;BME280;25231;48.746;9.234;2023-03-23T12:38:41;96167.59;;;17.81;57.43
39555;BME280;25231;48.746;9.234;2023-03-23T12:41:15;96162.31;;;17.57;56.49
39555;BME280;25231;48.746;9.234;2023-03-23T12:44:06;96161.03;;;17.12;57.01
39555;BME280;25231;48.746;9.234;2023-03-23T12:52:21;96161.25;;;17.96;55.20
39555;BME280;25231;48.746;9.234;2023-03-23T12:54:58;96158.25;;;18.02;54.45
39555;BME280;25231;48.746;9.234;2023-03-23T12:58:05;96153.78;;;18.16;54.09
39555;BME280;25231;48.746;9.234;2023-03-23T13:03:15;96145.50;;;18.37;53.56
39555;BME280;25231;48.746;9.234;2023-03-23T13:08:33;96138.59;;;18.36;53.51
39555;BME280;25231;48.746;9.234;2023-03-23T13:11:04;96135.41;;;18.20;53.79
39555;BME280;25231;48.746;9.234;2023-03-23T13:13:49;96127.09;;;18.26;53.45
39555;BME280;25231;48.746;9.234;2023-03-23T13:16:24;96126.06;;;18.22;53.72
39555;BME280;25231;48.746;9.234;2023-03-23T13:19:01;96128.88;;;17.99;53.97
39555;BME280;25231;48.746;9.234;2023-03-23T13:21:32;96121.00;;;17.94;53.41
39555;BME280;25231;48.746;9.234;2023-03-23T13:24:06;96119.72;;;17.72;54.86
39555;BME280;25231;48.746;9.234;2023-03-23T13:26:38;96117.84;;;17.92;53.73
39555;BME280;25231;48.746;9.234;2023-03-23T13:29:15;96108.66;;;18.03;53.67
39555;BME280;25231;48.746;9.234;2023-03-23T13:31:45;96107.84;;;18.02;53.74
39555;BME280;25231;48.746;9.234;2023-03-23T13:36:58;96109.22;;;18.32;52.32
39555;BME280;25231;48.746;9.234;2023-03-23T13:39:35;96103.25;;;18.08;53.30
39555;BME280;25231;48.746;9.234;2023-03-23T13:47:21;96100.41;;;18.04;53.48
39555;BME280;25231;48.746;9.234;2023-03-23T13:49:51;96096.63;;;18.24;53.49
39555;BME280;25231;48.746;9.234;2023-03-23T13:54:45;96093.69;;;18.39;53.23
39555;BME280;25231;48.746;9.234;2023-03-23T14:02:59;96100.34;;;17.91;53.26
39555;BME280;25231;48.746;9.234;2023-03-23T14:05:35;96094.56;;;17.89;53.60
39555;BME280;25231;48.746;9.234;2023-03-23T14:10:41;96076.50;;;17.91;53.52
39555;BME280;25231;48.746;9.234;2023-03-23T14:13:30;96072.94;;;17.81;53.92
39555;BME280;25231;48.746;9.234;2023-03-23T14:16:04;96071.72;;;17.74;54.36
39555;BME280;25231;48.746;9.234;2023-03-23T14:18:39;96071.88;;;17.82;53.79
39555;BME280;25231;48.746;9.234;2023-03-23T14:21:11;96072.22;;;17.76;53.30
39555;BME280;25231;48.746;9.234;2023-03-23T14:23:39;96062.41;;;17.76;52.71
39555;BME280;25231;48.746;9.234;2023-03-23T14:26:12;96058.16;;;17.57;52.38
39555;BME280;25231;48.746;9.234;2023-03-23T14:28:41;96062.28;;;17.49;52.94
39555;BME280;25231;48.746;9.234;2023-03-23T14:31:28;96068.44;;;17.26;52.69
39555;BME280;25231;48.746;9.234;2023-03-23T14:33:55;96063.13;;;17.44;52.51
39555;BME280;25231;48.746;9.234;2023-03-23T14:36:30;96059.63;;;17.30;51.88
39555;BME280;25231;48.746;9.234;2023-03-23T14:39:23;96070.50;;;17.29;52.24
39555;BME280;25231;48.746;9.234;2023-03-23T14:41:51;96074.75;;;17.49;51.90
39555;BME280;25231;48.746;9.234;2023-03-23T14:44:21;96066.63;;;17.59;51.85
39555;BME280;25231;48.746;9.234;2023-03-23T14:46:47;96060.69;;;17.48;51.77
39555;BME280;25231;48.746;9.234;2023-03-23T14:49:17;96072.88;;;17.49;51.81
39555;BME280;25231;48.746;9.234;2023-03-23T14:51:49;96066.00;;;17.48;52.31
39555;BME280;25231;48.746;9.234;2023-03-23T14:54:27;96062.47;;;17.53;52.48
39555;BME280;25231;48.746;9.234;2023-03-23T14:56:55;96064.69;;;17.45;52.45
39555;BME280;25231;48.746;9.234;2023-03-23T14:59:20;96063.56;;;17.33;52.60
39555;BME280;25231;48.746;9.234;2023-03-23T15:01:47;96061.84;;;17.23;52.70